Time;durP1;ratioP1;P1;durP2;ratioP2;P2;SDS_P1;SDS_P2;PMS_P1;PMS_P2;Temp;Humidity;BMP_temperature;BMP_pressure;BME280_temperature;BME280_humidity;BME280_pressure;Samples;Min_cycle;Max_cycle;Signal;HPM_P1;HPM_P2
2023/08/08 00:03:22;;;;;;;2.80;2.60;;;16.80;94.00;;;;;;10444960;28;20231;-80
2023/08/08 00:08:26;;;;;;;2.80;2.60;;;16.80;94.00;;;;;;10442376;28;20199;-80
2023/08/08 00:13:28;;;;;;;5.20;2.40;;;16.80;94.80;;;;;;10442571;28;20218;-80
2023/08/08 00:18:30;;;;;;;4.30;2.73;;;16.90;94.70;;;;;;10445801;28;20195;-81
2023/08/08 00:23:33;;;;;;;3.37;2.70;;;16.90;94.70;;;;;;10444319;28;20309;-81
2023/08/08 00:28:35;;;;;;;2.80;2.70;;;17.00;94.30;;;;;;10439525;28;20234;-80
2023/08/08 00:33:37;;;;;;;2.70;2.50;;;17.00;94.00;;;;;;10443331;28;20221;-80
2023/08/08 00:38:41;;;;;;;2.77;2.50;;;17.10;94.40;;;;;;10431294;28;20340;-81
2023/08/08 00:43:43;;;;;;;2.90;2.70;;;17.10;94.60;;;;;;10443025;28;20280;-80
2023/08/08 00:48:45;;;;;;;2.30;2.10;;;17.10;94.40;;;;;;10440416;28;20573;-80
2023/08/08 00:53:50;;;;;;;2.40;2.20;;;17.20;94.20;;;;;;10441673;28;20328;-80
2023/08/08 00:58:52;;;;;;;2.43;2.33;;;17.20;94.40;;;;;;10429723;28;20214;-81
2023/08/08 01:03:54;;;;;;;2.40;2.30;;;17.20;94.10;;;;;;10435853;28;20244;-81
2023/08/08 01:09:01;;;;;;;2.43;2.33;;;17.20;93.90;;;;;;10439178;28;20211;-81
2023/08/08 01:14:07;;;;;;;2.70;2.50;;;17.20;94.00;;;;;;10442352;28;20225;-81
2023/08/08 01:19:12;;;;;;;2.53;2.33;;;17.20;93.60;;;;;;10442141;28;20704;-81
2023/08/08 01:24:19;;;;;;;2.10;2.00;;;17.20;94.30;;;;;;10440213;28;20210;-81
2023/08/08 01:29:21;;;;;;;2.30;2.20;;;17.20;94.00;;;;;;10437281;28;20214;-81
2023/08/08 01:34:24;;;;;;;2.60;2.40;;;17.20;94.10;;;;;;10441754;28;20276;-81
2023/08/08 01:39:30;;;;;;;2.50;2.40;;;17.20;94.00;;;;;;10444300;28;20248;-81
2023/08/08 01:44:34;;;;;;;2.33;2.23;;;17.20;94.20;;;;;;10452614;28;20218;-81
2023/08/08 01:49:37;;;;;;;2.00;1.90;;;17.30;94.30;;;;;;10444767;28;20205;-81
2023/08/08 01:54:42;;;;;;;2.40;2.30;;;17.30;94.00;;;;;;10445785;28;20213;-81
2023/08/08 01:59:46;;;;;;;2.53;2.43;;;17.30;94.30;;;;;;10456219;28;20697;-80
2023/08/08 02:04:50;;;;;;;2.70;2.60;;;17.30;94.30;;;;;;10434471;28;20232;-81
2023/08/08 02:09:53;;;;;;;2.50;2.40;;;17.30;94.50;;;;;;10463256;28;20206;-81
2023/08/08 02:14:55;;;;;;;2.73;2.50;;;17.30;94.70;;;;;;10468398;28;20214;-80
2023/08/08 02:19:57;;;;;;;2.43;2.33;;;17.30;94.60;;;;;;10477173;28;20222;-80
2023/08/08 02:25:01;;;;;;;3.60;2.50;;;17.30;94.60;;;;;;10478246;28;20234;-80
2023/08/08 02:30:04;;;;;;;2.50;2.40;;;17.30;94.70;;;;;;10482318;28;20206;-80
2023/08/08 02:35:07;;;;;;;2.47;2.37;;;17.30;94.30;;;;;;10481328;28;20247;-80
2023/08/08 02:40:12;;;;;;;2.77;2.57;;;17.20;94.40;;;;;;10434684;28;20233;-80
2023/08/08 02:45:14;;;;;;;2.80;2.60;;;17.10;94.30;;;;;;10430922;28;20290;-81
2023/08/08 02:50:17;;;;;;;2.93;2.73;;;17.10;94.50;;;;;;10428655;28;20201;-80
2023/08/08 02:55:21;;;;;;;2.70;2.50;;;17.00;94.60;;;;;;10416240;28;20225;-79
2023/08/08 03:00:26;;;;;;;3.17;2.87;;;17.00;94.70;;;;;;10432913;28;20225;-80
2023/08/08 03:05:30;;;;;;;2.87;2.70;;;16.90;95.00;;;;;;10432083;28;20215;-80
2023/08/08 03:10:34;;;;;;;2.70;2.60;;;16.90;94.60;;;;;;10433859;28;20205;-80
2023/08/08 03:15:36;;;;;;;2.40;2.20;;;16.80;94.80;;;;;;10414626;28;20712;-80
2023/08/08 03:20:41;;;;;;;1.97;1.87;;;16.80;94.80;;;;;;10423812;28;20397;-81
2023/08/08 03:25:46;;;;;;;2.80;2.50;;;16.70;94.70;;;;;;10434178;28;20246;-80
2023/08/08 03:30:49;;;;;;;2.80;2.70;;;16.70;95.30;;;;;;10438765;28;20658;-80
2023/08/08 03:35:53;;;;;;;4.20;2.10;;;16.70;94.80;;;;;;10434101;28;20257;-80
2023/08/08 03:40:57;;;;;;;2.20;2.10;;;16.70;95.60;;;;;;10422464;28;20218;-81
2023/08/08 03:46:00;;;;;;;2.33;2.13;;;16.70;95.20;;;;;;10442818;28;20225;-80
2023/08/08 03:51:02;;;;;;;2.30;2.20;;;16.70;95.30;;;;;;10439760;28;20206;-80
2023/08/08 03:56:07;;;;;;;2.70;2.60;;;16.70;95.20;;;;;;10442836;28;20743;-80
2023/08/08 04:01:09;;;;;;;2.67;2.43;;;16.80;95.30;;;;;;10421200;28;20234;-80
2023/08/08 04:06:11;;;;;;;2.63;2.43;;;16.90;95.60;;;;;;10432431;28;20298;-81
2023/08/08 04:11:15;;;;;;;3.20;2.20;;;16.90;96.30;;;;;;10443195;28;20198;-80
2023/08/08 04:16:17;;;;;;;2.70;2.50;;;16.90;96.10;;;;;;10440083;28;20632;-80
2023/08/08 04:21:19;;;;;;;2.50;2.20;;;17.00;96.00;;;;;;10439879;28;20296;-81
2023/08/08 04:26:22;;;;;;;2.00;1.90;;;17.00;95.80;;;;;;10434485;28;20210;-80
2023/08/08 04:31:25;;;;;;;2.80;2.60;;;17.10;95.40;;;;;;10436471;28;20222;-80
2023/08/08 04:36:28;;;;;;;2.00;1.90;;;17.00;95.30;;;;;;10406311;23;20249;-82
2023/08/08 04:41:31;;;;;;;2.03;1.93;;;17.00;95.80;;;;;;10369172;28;20249;-84
2023/08/08 04:46:33;;;;;;;1.90;1.80;;;17.10;95.20;;;;;;10424661;28;20245;-84
2023/08/08 04:51:35;;;;;;;2.30;2.20;;;17.10;95.50;;;;;;10422344;28;20194;-84
2023/08/08 04:56:39;;;;;;;2.67;2.47;;;17.20;95.60;;;;;;10420128;28;20234;-85
2023/08/08 05:01:41;;;;;;;2.00;1.90;;;17.20;95.50;;;;;;10405013;28;20218;-86
2023/08/08 05:06:43;;;;;;;2.10;2.00;;;17.20;95.10;;;;;;10415643;28;20763;-84
2023/08/08 05:11:46;;;;;;;2.80;2.47;;;17.20;95.60;;;;;;10413531;28;20195;-83
2023/08/08 05:16:48;;;;;;;3.30;2.20;;;17.20;95.90;;;;;;10429864;28;20223;-83
2023/08/08 05:21:50;;;;;;;3.47;2.20;;;17.20;95.80;;;;;;10440169;28;20237;-83
2023/08/08 05:26:54;;;;;;;3.00;2.67;;;17.20;95.90;;;;;;10431076;28;20264;-82
2023/08/08 05:31:56;;;;;;;3.70;3.40;;;17.20;96.20;;;;;;10414406;28;20195;-82
2023/08/08 05:36:58;;;;;;;2.30;2.20;;;17.20;96.20;;;;;;10431548;28;20195;-83
2023/08/08 05:42:02;;;;;;;2.13;2.00;;;17.20;96.00;;;;;;10432011;28;20280;-84
2023/08/08 05:47:04;;;;;;;3.37;3.00;;;17.20;95.60;;;;;;10440179;28;20217;-83
2023/08/08 05:52:07;;;;;;;6.40;3.70;;;17.20;95.90;;;;;;10420264;28;20210;-83
2023/08/08 05:57:10;;;;;;;3.70;2.17;;;17.20;95.60;;;;;;10432270;28;20213;-84
2023/08/08 06:02:12;;;;;;;2.87;2.67;;;17.20;95.50;;;;;;10427148;28;20230;-84
2023/08/08 06:07:15;;;;;;;2.13;1.93;;;17.20;95.10;;;;;;10430107;28;20209;-84
2023/08/08 06:12:18;;;;;;;2.63;2.43;;;17.20;95.30;;;;;;10413328;28;20206;-83
2023/08/08 06:17:20;;;;;;;1.97;1.87;;;17.20;95.50;;;;;;10431546;28;20214;-84
2023/08/08 06:22:22;;;;;;;2.40;1.90;;;17.30;95.50;;;;;;10431777;28;20227;-83
2023/08/08 06:27:26;;;;;;;2.37;2.27;;;17.40;95.90;;;;;;10433131;28;20229;-84
2023/08/08 06:32:28;;;;;;;2.37;2.27;;;17.50;95.70;;;;;;10408942;28;20280;-84
2023/08/08 06:37:30;;;;;;;3.20;2.57;;;17.60;96.00;;;;;;10443708;28;20257;-84
2023/08/08 06:42:33;;;;;;;3.47;2.33;;;17.70;96.00;;;;;;10431585;28;20221;-84
2023/08/08 06:47:37;;;;;;;2.30;2.10;;;18.00;94.90;;;;;;10396497;28;20199;-83
2023/08/08 06:52:40;;;;;;;2.33;2.20;;;18.10;95.10;;;;;;10425507;28;20225;-84
2023/08/08 06:57:43;;;;;;;2.47;2.27;;;18.20;94.80;;;;;;10431648;28;20186;-84
2023/08/08 07:02:45;;;;;;;2.57;2.37;;;18.40;94.80;;;;;;10407373;28;20242;-84
2023/08/08 07:07:48;;;;;;;2.50;2.30;;;18.50;95.30;;;;;;10424565;28;20203;-84
2023/08/08 07:12:51;;;;;;;2.87;2.67;;;18.60;94.60;;;;;;10428281;28;20583;-84
2023/08/08 07:17:53;;;;;;;2.00;1.90;;;18.80;94.00;;;;;;10424527;28;20696;-84
2023/08/08 07:22:55;;;;;;;2.00;1.90;;;18.90;94.30;;;;;;10429633;28;20223;-84
2023/08/08 07:27:59;;;;;;;2.63;2.43;;;19.00;94.80;;;;;;10427155;28;20257;-84
2023/08/08 07:33:01;;;;;;;2.53;2.37;;;19.30;94.50;;;;;;10430357;28;20694;-84
2023/08/08 07:38:03;;;;;;;2.90;2.30;;;19.50;94.30;;;;;;10429860;28;20274;-84
2023/08/08 07:43:07;;;;;;;2.33;2.23;;;19.70;94.40;;;;;;10411986;28;20222;-84
2023/08/08 07:48:09;;;;;;;4.50;2.47;;;20.00;92.50;;;;;;10431152;28;20209;-84
2023/08/08 07:53:11;;;;;;;2.10;2.00;;;20.30;92.20;;;;;;10429428;28;20218;-84
2023/08/08 07:58:15;;;;;;;3.23;2.10;;;20.70;91.50;;;;;;10429199;28;20225;-84
2023/08/08 08:03:17;;;;;;;3.03;2.60;;;21.20;92.10;;;;;;10432265;28;20333;-85
2023/08/08 08:08:19;;;;;;;3.40;1.83;;;21.50;89.00;;;;;;10423179;28;20203;-84
2023/08/08 08:13:22;;;;;;;2.40;2.20;;;21.70;90.50;;;;;;10420480;28;20257;-85
2023/08/08 08:18:24;;;;;;;2.60;2.20;;;21.90;87.70;;;;;;10417184;28;20203;-84
2023/08/08 08:23:26;;;;;;;3.50;2.57;;;22.00;90.00;;;;;;10435051;28;20594;-85
2023/08/08 08:28:30;;;;;;;2.70;2.37;;;22.30;89.60;;;;;;10418470;28;20256;-85
2023/08/08 08:33:33;;;;;;;2.23;2.10;;;22.40;88.90;;;;;;10406399;28;20218;-85
2023/08/08 08:38:35;;;;;;;3.40;2.30;;;22.50;88.30;;;;;;10436849;28;20207;-85
2023/08/08 08:43:38;;;;;;;2.20;2.00;;;22.60;85.50;;;;;;10420041;28;20259;-83
2023/08/08 08:48:41;;;;;;;2.17;1.97;;;22.40;87.00;;;;;;10443618;28;20202;-84
2023/08/08 08:53:46;;;;;;;4.00;2.20;;;22.60;87.60;;;;;;10439321;28;20232;-85
2023/08/08 08:58:49;;;;;;;3.13;2.13;;;22.80;88.60;;;;;;10420902;28;20670;-84
2023/08/08 09:03:53;;;;;;;2.43;2.33;;;22.90;87.90;;;;;;10423839;28;20600;-84
2023/08/08 09:08:55;;;;;;;2.47;2.30;;;23.00;87.50;;;;;;10422596;28;20199;-84
2023/08/08 09:13:59;;;;;;;2.80;2.50;;;23.00;86.70;;;;;;10427737;28;20229;-83
2023/08/08 09:19:03;;;;;;;2.00;1.90;;;23.00;85.50;;;;;;10406580;28;20211;-84
2023/08/08 09:24:06;;;;;;;2.30;2.10;;;22.90;87.20;;;;;;10431750;28;20248;-83
2023/08/08 09:29:11;;;;;;;2.50;1.73;;;23.10;87.70;;;;;;10418246;28;20219;-84
2023/08/08 09:34:13;;;;;;;1.90;1.80;;;23.10;83.30;;;;;;10411718;28;20223;-84
2023/08/08 09:39:15;;;;;;;3.00;2.30;;;23.10;84.40;;;;;;10414910;28;20256;-84
2023/08/08 09:44:18;;;;;;;2.10;2.00;;;23.10;84.40;;;;;;10431828;28;20245;-84
2023/08/08 09:49:22;;;;;;;5.80;1.60;;;23.40;86.30;;;;;;10413373;28;20190;-84
2023/08/08 09:54:25;;;;;;;2.20;2.00;;;23.60;84.20;;;;;;10431862;28;20218;-85
2023/08/08 09:59:29;;;;;;;1.80;1.70;;;23.80;82.40;;;;;;10426748;28;20250;-83
2023/08/08 10:04:32;;;;;;;2.20;2.10;;;24.00;82.80;;;;;;10431510;28;20236;-84
2023/08/08 10:09:34;;;;;;;2.40;2.20;;;24.30;82.60;;;;;;10431015;28;20203;-84
2023/08/08 10:14:39;;;;;;;2.10;2.00;;;24.40;81.60;;;;;;10428444;28;20268;-84
2023/08/08 10:19:50;;;;;;;2.47;2.27;;;24.70;79.20;;;;;;10428860;28;20285;-84
2023/08/08 10:24:54;;;;;;;2.20;2.10;;;24.70;77.30;;;;;;10428279;28;20277;-84
2023/08/08 10:30:03;;;;;;;3.50;1.30;;;24.60;78.90;;;;;;10418458;28;20272;-83
2023/08/08 10:35:07;;;;;;;2.30;2.10;;;24.60;78.90;;;;;;10429262;28;20253;-84
2023/08/08 10:40:11;;;;;;;2.00;1.90;;;24.50;73.00;;;;;;10404201;28;20256;-82
2023/08/08 10:45:16;;;;;;;2.30;2.13;;;24.40;75.10;;;;;;10435069;28;20626;-84
2023/08/08 10:50:23;;;;;;;2.10;2.00;;;24.30;73.90;;;;;;10428925;28;20206;-82
2023/08/08 10:55:27;;;;;;;2.13;1.93;;;24.10;74.60;;;;;;10417351;28;20272;-83
2023/08/08 11:00:32;;;;;;;2.07;1.93;;;24.00;72.60;;;;;;10414867;28;20685;-83
2023/08/08 11:05:36;;;;;;;1.93;1.83;;;23.90;70.40;;;;;;10426678;28;20214;-83
2023/08/08 11:10:40;;;;;;;2.33;2.07;;;23.70;70.40;;;;;;10425971;28;20614;-84
2023/08/08 11:15:44;;;;;;;1.73;1.63;;;23.50;66.80;;;;;;10423794;28;20585;-84
2023/08/08 11:20:46;;;;;;;1.77;1.57;;;23.10;70.20;;;;;;10430345;28;20190;-84
2023/08/08 11:25:49;;;;;;;1.90;1.80;;;23.10;69.20;;;;;;10429225;28;20218;-83
2023/08/08 11:30:53;;;;;;;2.37;2.17;;;23.00;72.90;;;;;;10402740;28;20202;-84
2023/08/08 11:35:57;;;;;;;2.53;2.33;;;23.10;74.70;;;;;;10430435;28;20238;-84
2023/08/08 11:40:59;;;;;;;2.10;2.00;;;23.20;72.20;;;;;;10443168;28;20277;-84
2023/08/08 11:46:05;;;;;;;1.97;1.87;;;23.10;70.90;;;;;;10423821;28;20230;-83
2023/08/08 11:51:08;;;;;;;2.20;2.10;;;23.10;73.20;;;;;;10438089;28;20273;-85
2023/08/08 11:56:10;;;;;;;1.90;1.80;;;23.10;70.90;;;;;;10421119;28;20219;-84
2023/08/08 12:01:14;;;;;;;1.90;1.80;;;23.00;71.50;;;;;;10423933;28;20250;-84
2023/08/08 12:06:17;;;;;;;3.63;2.30;;;23.00;71.40;;;;;;10423444;28;20277;-84
2023/08/08 12:11:21;;;;;;;1.93;1.83;;;22.90;72.40;;;;;;10440422;28;20338;-84
2023/08/08 12:16:30;;;;;;;1.80;1.70;;;22.90;70.60;;;;;;10440458;28;20245;-84
2023/08/08 12:21:34;;;;;;;2.20;2.10;;;23.00;72.90;;;;;;10439071;28;20223;-85
2023/08/08 12:26:37;;;;;;;3.80;1.93;;;23.10;74.00;;;;;;10440572;28;20226;-84
2023/08/08 12:31:41;;;;;;;2.47;2.27;;;23.20;73.30;;;;;;10440104;28;20198;-84
2023/08/08 12:36:43;;;;;;;2.53;2.20;;;23.20;71.40;;;;;;10430216;28;20226;-83
2023/08/08 12:41:45;;;;;;;2.10;2.00;;;23.30;73.20;;;;;;10431606;28;20218;-83
2023/08/08 12:46:49;;;;;;;1.70;1.60;;;23.40;71.40;;;;;;10434650;28;20249;-84
2023/08/08 12:51:54;;;;;;;3.80;2.47;;;23.40;73.60;;;;;;10432125;28;20198;-83
2023/08/08 12:56:56;;;;;;;3.27;2.97;;;23.40;70.40;;;;;;10433839;28;20289;-84
2023/08/08 13:01:59;;;;;;;3.33;2.93;;;23.30;72.40;;;;;;10434134;28;20245;-82
2023/08/08 13:07:01;;;;;;;2.13;2.00;;;23.20;68.10;;;;;;10439111;28;20304;-84
2023/08/08 13:12:05;;;;;;;9.80;3.50;;;23.20;72.80;;;;;;10438873;28;20198;-83
2023/08/08 13:17:09;;;;;;;13.90;7.40;;;23.20;73.40;;;;;;10416624;28;20292;-84
2023/08/08 13:22:12;;;;;;;5.70;2.40;;;23.20;75.00;;;;;;10403044;28;20210;-84
2023/08/08 13:27:14;;;;;;;2.50;2.30;;;23.30;75.20;;;;;;10417205;28;20293;-84
2023/08/08 13:32:18;;;;;;;2.07;1.97;;;23.30;75.10;;;;;;10426066;28;20254;-82
2023/08/08 13:37:20;;;;;;;3.67;2.27;;;23.30;74.70;;;;;;10431300;28;20261;-83
2023/08/08 13:42:22;;;;;;;4.60;2.10;;;23.40;74.20;;;;;;10429021;28;20234;-84
2023/08/08 13:47:25;;;;;;;2.47;1.80;;;23.20;74.30;;;;;;10399594;28;20195;-83
2023/08/08 13:52:28;;;;;;;2.20;2.10;;;23.10;74.60;;;;;;10425160;28;20598;-83
2023/08/08 13:57:30;;;;;;;1.97;1.87;;;23.00;76.80;;;;;;10403301;28;20703;-83
2023/08/08 14:02:34;;;;;;;2.07;1.87;;;22.90;75.70;;;;;;10429119;28;20277;-83
2023/08/08 14:07:36;;;;;;;2.40;2.27;;;22.90;73.90;;;;;;10421026;28;20284;-84
2023/08/08 14:12:38;;;;;;;2.13;2.03;;;22.90;72.60;;;;;;10410961;28;20246;-84
2023/08/08 14:17:42;;;;;;;3.40;2.10;;;22.90;73.90;;;;;;10412461;28;20234;-84
2023/08/08 14:22:45;;;;;;;1.93;1.83;;;22.90;75.10;;;;;;10428761;28;20248;-84
2023/08/08 14:27:47;;;;;;;1.70;1.60;;;22.90;74.70;;;;;;10431835;28;20225;-84
2023/08/08 14:32:51;;;;;;;2.10;1.80;;;23.00;73.20;;;;;;10424792;28;20237;-83
2023/08/08 14:37:53;;;;;;;2.80;2.23;;;23.10;73.50;;;;;;10422665;28;20226;-83
2023/08/08 14:42:55;;;;;;;1.70;1.60;;;23.00;76.80;;;;;;10387275;28;20734;-84
2023/08/08 14:47:59;;;;;;;5.60;2.30;;;22.90;76.40;;;;;;10427297;28;20222;-83
2023/08/08 14:53:01;;;;;;;2.80;2.13;;;22.90;75.80;;;;;;10425166;28;20210;-84
2023/08/08 14:58:04;;;;;;;3.00;2.10;;;22.90;78.30;;;;;;10418067;28;20195;-84
2023/08/08 15:03:07;;;;;;;2.03;1.80;;;22.90;76.70;;;;;;10412426;28;20289;-83
2023/08/08 15:08:10;;;;;;;2.17;1.90;;;22.90;77.70;;;;;;10423032;28;20277;-84
2023/08/08 15:13:12;;;;;;;2.27;2.07;;;22.90;76.00;;;;;;10430641;28;20221;-84
2023/08/08 15:18:15;;;;;;;3.43;1.90;;;22.80;79.50;;;;;;10421959;28;20211;-84
2023/08/08 15:23:18;;;;;;;2.33;1.80;;;22.80;75.10;;;;;;10448272;28;20640;-83
2023/08/08 15:28:20;;;;;;;1.73;1.63;;;22.70;78.60;;;;;;10459513;28;20202;-84
2023/08/08 15:33:23;;;;;;;2.53;1.60;;;22.70;76.70;;;;;;10442890;28;20485;-83
2023/08/08 15:38:25;;;;;;;3.60;2.50;;;22.70;77.70;;;;;;10426984;28;20198;-83
2023/08/08 15:43:28;;;;;;;2.03;1.93;;;22.80;78.20;;;;;;10443619;28;20253;-84
2023/08/08 15:48:32;;;;;;;1.97;1.87;;;22.70;79.20;;;;;;10424650;28;20206;-83
2023/08/08 15:53:34;;;;;;;1.90;1.80;;;22.70;76.70;;;;;;10427226;28;20215;-84
2023/08/08 15:58:37;;;;;;;2.37;2.20;;;22.50;78.60;;;;;;10426440;28;20202;-83
2023/08/08 16:03:40;;;;;;;2.20;1.90;;;22.40;79.00;;;;;;10438840;28;20230;-83
2023/08/08 16:08:42;;;;;;;2.13;1.93;;;22.40;78.40;;;;;;10443399;28;20205;-83
2023/08/08 16:13:44;;;;;;;2.50;2.40;;;22.40;78.20;;;;;;10443055;28;20706;-83
2023/08/08 16:18:48;;;;;;;2.43;2.07;;;22.40;79.00;;;;;;10426511;28;20260;-83
2023/08/08 16:23:50;;;;;;;4.83;2.30;;;22.50;79.10;;;;;;10418896;28;20286;-84
2023/08/08 16:28:52;;;;;;;2.20;2.10;;;22.50;78.70;;;;;;10432160;28;20241;-82
2023/08/08 16:33:56;;;;;;;2.60;2.17;;;22.40;79.80;;;;;;10408544;28;20230;-84
2023/08/08 16:38:58;;;;;;;2.80;2.10;;;22.30;78.30;;;;;;10426517;28;20229;-83
2023/08/08 16:44:02;;;;;;;3.30;2.20;;;22.10;79.20;;;;;;10391183;28;20334;-84
2023/08/08 16:49:07;;;;;;;3.47;2.33;;;22.00;80.70;;;;;;10435114;28;20206;-83
2023/08/08 16:54:09;;;;;;;2.33;2.17;;;21.80;79.90;;;;;;10431221;28;20219;-84
2023/08/08 16:59:11;;;;;;;4.10;2.10;;;21.70;81.90;;;;;;10410311;28;20227;-83
2023/08/08 17:04:15;;;;;;;2.07;1.93;;;21.70;82.30;;;;;;10411118;28;20218;-84
2023/08/08 17:09:17;;;;;;;2.50;2.13;;;21.60;82.60;;;;;;10434619;28;20226;-83
2023/08/08 17:14:21;;;;;;;2.93;2.67;;;21.60;84.00;;;;;;10434698;28;20288;-83
2023/08/08 17:19:25;;;;;;;2.23;2.13;;;21.60;84.50;;;;;;10434490;28;20209;-84
2023/08/08 17:24:27;;;;;;;2.40;2.20;;;21.70;82.60;;;;;;10436268;28;20219;-84
2023/08/08 17:29:29;;;;;;;2.10;2.00;;;21.80;82.90;;;;;;10438580;28;20199;-84
2023/08/08 17:34:32;;;;;;;2.57;2.20;;;21.80;84.30;;;;;;10435879;28;20317;-84
2023/08/08 17:39:34;;;;;;;2.47;2.23;;;21.70;83.00;;;;;;10436530;28;20206;-82
2023/08/08 17:44:36;;;;;;;2.10;2.00;;;21.70;84.50;;;;;;10436388;28;20226;-84
2023/08/08 17:49:40;;;;;;;2.27;2.07;;;21.70;83.00;;;;;;10434601;28;20218;-83
2023/08/08 17:54:42;;;;;;;2.83;2.63;;;21.60;86.80;;;;;;10434287;28;20238;-83
2023/08/08 17:59:44;;;;;;;2.53;2.33;;;21.60;85.20;;;;;;10435469;28;20199;-84
2023/08/08 18:04:48;;;;;;;3.70;2.50;;;21.50;83.60;;;;;;10418054;28;20231;-82
2023/08/08 18:09:52;;;;;;;2.10;2.00;;;21.50;84.80;;;;;;10435905;28;20652;-83
2023/08/08 18:14:54;;;;;;;3.20;2.40;;;21.40;85.50;;;;;;10439885;28;20297;-83
2023/08/08 18:19:58;;;;;;;2.53;2.33;;;21.40;83.70;;;;;;10408160;28;20629;-83
2023/08/08 18:25:00;;;;;;;2.03;1.83;;;21.40;85.10;;;;;;10427305;28;20222;-82
2023/08/08 18:30:03;;;;;;;2.37;2.27;;;21.40;84.90;;;;;;10420186;28;20333;-82
2023/08/08 18:35:09;;;;;;;2.50;2.30;;;21.30;88.80;;;;;;10404459;28;20261;-82
2023/08/08 18:40:12;;;;;;;2.40;2.20;;;21.20;86.60;;;;;;10409344;28;20203;-83
2023/08/08 18:45:14;;;;;;;2.70;2.50;;;21.20;89.10;;;;;;10391912;28;20244;-83
2023/08/08 18:50:19;;;;;;;2.03;1.93;;;21.10;90.20;;;;;;10417655;28;20721;-83
2023/08/08 19:00:39;;;;;;;2.47;2.37;;;20.90;90.10;;;;;;11457495;22;20292;-82
2023/08/08 19:05:43;;;;;;;4.17;2.53;;;20.90;89.00;;;;;;10390492;28;20298;-82
2023/08/08 19:10:45;;;;;;;3.20;2.47;;;20.80;88.60;;;;;;10384120;28;20223;-83
2023/08/08 19:15:48;;;;;;;2.87;2.67;;;20.70;88.70;;;;;;10385291;28;20338;-83
2023/08/08 19:20:51;;;;;;;2.50;2.30;;;20.70;89.60;;;;;;10391965;28;20218;-83
2023/08/08 19:25:59;;;;;;;2.70;2.30;;;20.60;89.30;;;;;;10388165;28;20310;-83
2023/08/08 19:31:01;;;;;;;2.53;2.43;;;20.60;90.00;;;;;;10389062;28;20176;-83
2023/08/08 19:36:07;;;;;;;2.47;2.27;;;20.50;90.30;;;;;;10388865;28;20219;-83
2023/08/08 19:41:09;;;;;;;2.50;2.30;;;20.50;91.10;;;;;;10389518;28;20203;-83
2023/08/08 19:46:12;;;;;;;2.40;2.20;;;20.50;90.80;;;;;;10388058;28;20227;-83
2023/08/08 19:51:16;;;;;;;2.30;2.20;;;20.50;90.80;;;;;;10389091;28;20271;-82
2023/08/08 19:56:19;;;;;;;2.90;2.70;;;20.50;90.90;;;;;;10392262;28;20231;-83
2023/08/08 20:01:23;;;;;;;4.80;2.30;;;20.40;90.90;;;;;;10398183;28;20212;-82
2023/08/08 20:06:26;;;;;;;2.57;2.40;;;20.40;90.60;;;;;;10358726;28;20224;-82
2023/08/08 20:11:29;;;;;;;2.43;2.23;;;20.40;90.80;;;;;;10364198;28;20202;-83
2023/08/08 20:16:31;;;;;;;2.50;2.40;;;20.40;91.10;;;;;;10404825;28;20566;-82
2023/08/08 20:21:35;;;;;;;2.50;2.40;;;20.30;91.80;;;;;;10380203;28;20200;-83
2023/08/08 20:26:37;;;;;;;2.60;2.40;;;20.30;91.70;;;;;;10362380;28;20222;-83
2023/08/08 20:31:40;;;;;;;3.77;2.30;;;20.30;91.70;;;;;;10365337;28;20188;-83
2023/08/08 20:36:44;;;;;;;3.87;2.80;;;20.30;91.70;;;;;;10374114;28;20670;-82
2023/08/08 20:41:47;;;;;;;2.63;2.43;;;20.20;91.60;;;;;;10377888;28;20234;-84
2023/08/08 20:46:50;;;;;;;2.20;2.00;;;20.10;92.00;;;;;;10359638;28;20225;-83
2023/08/08 20:51:54;;;;;;;2.50;2.30;;;20.10;91.80;;;;;;10346737;28;20199;-82
2023/08/08 20:56:57;;;;;;;2.17;2.07;;;20.10;91.30;;;;;;10380590;28;20268;-83
2023/08/08 21:02:00;;;;;;;3.23;2.27;;;20.00;92.00;;;;;;10393150;28;20237;-82
2023/08/08 21:07:05;;;;;;;2.40;2.30;;;20.00;92.00;;;;;;10373651;28;20288;-83
2023/08/08 21:12:09;;;;;;;3.03;2.77;;;19.90;91.80;;;;;;10387567;28;20227;-84
2023/08/08 21:17:12;;;;;;;3.00;2.80;;;19.80;92.10;;;;;;10357523;28;20262;-83
2023/08/08 21:22:16;;;;;;;2.73;2.53;;;19.80;92.30;;;;;;10323881;28;20675;-83
2023/08/08 21:27:19;;;;;;;5.57;2.40;;;19.70;92.30;;;;;;10368901;28;20230;-83
2023/08/08 21:32:22;;;;;;;2.90;2.60;;;19.60;92.30;;;;;;10346246;28;20219;-83
2023/08/08 21:37:26;;;;;;;2.73;2.53;;;19.60;92.80;;;;;;10365380;28;20226;-83
2023/08/08 21:42:28;;;;;;;2.70;2.60;;;19.60;92.50;;;;;;10369952;28;20591;-84
2023/08/08 21:47:30;;;;;;;3.53;2.60;;;19.50;92.60;;;;;;10353970;28;20223;-84
2023/08/08 21:52:34;;;;;;;2.67;2.50;;;19.60;93.00;;;;;;10376901;28;20704;-84
2023/08/08 21:57:36;;;;;;;2.77;2.57;;;19.60;92.90;;;;;;10379931;28;20235;-85
2023/08/08 22:02:38;;;;;;;4.33;2.93;;;19.60;92.90;;;;;;10375340;28;20235;-84
2023/08/08 22:07:42;;;;;;;2.70;2.47;;;19.60;93.00;;;;;;10378628;28;20227;-84
2023/08/08 22:12:44;;;;;;;2.73;2.53;;;19.60;93.30;;;;;;10366208;28;20219;-84
2023/08/08 22:17:46;;;;;;;3.00;2.80;;;19.60;93.50;;;;;;10368983;28;20222;-84
2023/08/08 22:22:50;;;;;;;5.13;2.20;;;19.70;93.30;;;;;;10374677;28;20223;-83
2023/08/08 22:27:52;;;;;;;2.90;2.70;;;19.70;93.10;;;;;;10372583;28;20196;-84
2023/08/08 22:32:54;;;;;;;3.73;2.77;;;19.70;92.70;;;;;;10381071;28;20654;-83
2023/08/08 22:37:57;;;;;;;2.90;2.40;;;19.70;92.80;;;;;;10363280;28;20201;-83
2023/08/08 22:42:59;;;;;;;2.83;2.63;;;19.70;93.10;;;;;;10372113;28;20277;-83
2023/08/08 22:48:01;;;;;;;2.97;2.77;;;19.70;92.20;;;;;;10364032;28;20262;-83
2023/08/08 22:53:05;;;;;;;3.37;2.73;;;19.70;92.20;;;;;;10381977;28;20222;-84
2023/08/08 22:58:07;;;;;;;4.67;2.50;;;19.70;92.80;;;;;;10360594;28;20207;-85
2023/08/08 23:03:09;;;;;;;3.07;2.77;;;19.70;92.20;;;;;;10372140;28;20228;-84
2023/08/08 23:08:12;;;;;;;3.00;2.60;;;19.70;92.50;;;;;;10373333;28;20608;-85
2023/08/08 23:13:15;;;;;;;4.07;2.60;;;19.60;92.30;;;;;;10379692;28;20232;-83
2023/08/08 23:18:18;;;;;;;2.97;2.67;;;19.60;92.30;;;;;;10355980;28;20238;-83
2023/08/08 23:23:23;;;;;;;2.30;2.20;;;19.60;92.70;;;;;;10371491;28;20270;-84
2023/08/08 23:28:25;;;;;;;2.77;2.57;;;19.60;92.80;;;;;;10348591;28;20226;-83
2023/08/08 23:33:27;;;;;;;2.20;1.93;;;19.60;92.70;;;;;;10384617;28;20283;-85
2023/08/08 23:38:30;;;;;;;2.50;2.30;;;19.60;92.90;;;;;;10391132;28;20253;-84
2023/08/08 23:43:32;;;;;;;2.80;2.60;;;19.60;93.00;;;;;;10385605;28;20215;-84
2023/08/08 23:48:35;;;;;;;2.27;2.10;;;19.60;93.30;;;;;;10380776;28;20208;-84
2023/08/08 23:53:38;;;;;;;2.67;2.27;;;19.60;92.80;;;;;;10379055;28;20581;-86
2023/08/08 23:58:40;;;;;;;2.93;2.83;;;19.60;92.80;;;;;;10383375;28;20643;-84
